Time;durP1;ratioP1;P1;durP2;ratioP2;P2;SDS_P1;SDS_P2;PMS_P1;PMS_P2;Temp;Humidity;BMP_temperature;BMP_pressure;BME280_temperature;BME280_humidity;BME280_pressure;Samples;Min_cycle;Max_cycle;Signal;HPM_P1;HPM_P2
2023/04/15 00:01:27;;;;;;;2.75;1.65;;;7.70;56.90;;;;;;5005720;28;20040;-74
2023/04/15 00:03:54;;;;;;;1.80;1.58;;;7.70;56.90;;;;;;5021469;28;20544;-75
2023/04/15 00:06:21;;;;;;;3.15;2.05;;;7.70;56.90;;;;;;5008190;28;20036;-74
2023/04/15 00:08:48;;;;;;;2.80;1.20;;;7.70;56.90;;;;;;5022348;28;20488;-74
2023/04/15 00:11:14;;;;;;;1.50;1.38;;;7.70;56.90;;;;;;5005090;28;20083;-74
2023/04/15 00:13:40;;;;;;;1.95;1.27;;;7.70;56.90;;;;;;5007616;28;20037;-74
2023/04/15 00:16:07;;;;;;;1.70;1.60;;;7.60;56.80;;;;;;5025655;28;20129;-74
2023/04/15 00:18:34;;;;;;;2.15;1.42;;;7.60;56.80;;;;;;5025977;28;20041;-75
2023/04/15 00:21:01;;;;;;;1.42;1.17;;;7.60;56.80;;;;;;5015650;28;20038;-74
2023/04/15 00:23:27;;;;;;;1.83;1.40;;;7.60;56.80;;;;;;5002121;28;20096;-75
2023/04/15 00:25:54;;;;;;;1.40;1.30;;;7.60;56.80;;;;;;5012981;28;20222;-74
2023/04/15 00:28:21;;;;;;;2.50;1.20;;;7.60;56.80;;;;;;5025564;28;20056;-74
2023/04/15 00:30:47;;;;;;;2.08;1.15;;;7.60;56.90;;;;;;5020116;28;20090;-74
2023/04/15 00:33:15;;;;;;;1.13;1.00;;;7.60;56.90;;;;;;4991045;28;20069;-74
2023/04/15 00:35:41;;;;;;;1.70;1.20;;;7.60;57.00;;;;;;5020520;28;20123;-74
2023/04/15 00:38:08;;;;;;;1.38;1.00;;;7.50;56.80;;;;;;5022367;28;20037;-74
2023/04/15 00:40:34;;;;;;;1.35;1.17;;;7.50;56.80;;;;;;5020838;28;20037;-74
2023/04/15 00:43:00;;;;;;;3.30;1.30;;;7.50;56.90;;;;;;5015449;28;20033;-73
2023/04/15 00:45:30;;;;;;;1.10;0.98;;;7.50;56.90;;;;;;5005606;28;20029;-76
2023/04/15 00:47:58;;;;;;;2.40;1.00;;;7.50;56.90;;;;;;5011314;28;20152;-74
2023/04/15 00:50:24;;;;;;;1.33;0.95;;;7.50;57.00;;;;;;5020410;28;20029;-76
2023/04/15 00:52:50;;;;;;;1.10;1.00;;;7.50;57.00;;;;;;5015729;28;20153;-74
2023/04/15 00:55:18;;;;;;;2.92;1.10;;;7.50;57.00;;;;;;5018758;28;20049;-75
2023/04/15 00:57:44;;;;;;;1.75;0.80;;;7.40;56.90;;;;;;5010891;28;20477;-76
2023/04/15 01:00:10;;;;;;;1.45;1.05;;;7.40;56.90;;;;;;5018486;28;20044;-75
2023/04/15 01:02:37;;;;;;;2.47;1.10;;;7.40;56.90;;;;;;5023724;28;20033;-74
2023/04/15 01:05:06;;;;;;;2.15;0.80;;;7.40;56.90;;;;;;5015221;28;20183;-76
2023/04/15 01:07:32;;;;;;;3.03;1.27;;;7.40;56.90;;;;;;5006891;28;20150;-74
2023/04/15 01:09:58;;;;;;;1.92;1.05;;;7.40;56.90;;;;;;5021846;28;20065;-74
2023/04/15 01:12:26;;;;;;;1.23;0.98;;;7.40;57.00;;;;;;5015305;28;20076;-74
2023/04/15 01:14:56;;;;;;;1.33;0.80;;;7.40;57.00;;;;;;4999642;28;20072;-73
2023/04/15 01:17:23;;;;;;;1.00;0.90;;;7.30;56.90;;;;;;5024052;28;20060;-73
2023/04/15 01:19:50;;;;;;;1.38;0.80;;;7.30;56.90;;;;;;5017488;28;20056;-74
2023/04/15 01:22:17;;;;;;;2.83;1.00;;;7.30;57.00;;;;;;4999616;28;20176;-74
2023/04/15 01:24:54;;;;;;;2.45;1.05;;;7.30;57.00;;;;;;5008800;28;20677;-74
2023/04/15 01:27:20;;;;;;;1.30;0.95;;;7.30;57.10;;;;;;5020273;28;20041;-74
2023/04/15 01:29:47;;;;;;;1.65;0.88;;;7.30;57.00;;;;;;5002150;28;20037;-74
2023/04/15 01:32:13;;;;;;;0.90;0.80;;;7.30;57.60;;;;;;5010036;28;20052;-75
2023/04/15 01:34:38;;;;;;;3.90;0.90;;;7.30;57.10;;;;;;5010014;28;20436;-74
2023/04/15 01:37:04;;;;;;;2.97;0.90;;;7.30;57.10;;;;;;5014382;28;20034;-74
2023/04/15 01:39:30;;;;;;;3.78;0.88;;;7.30;57.10;;;;;;5021979;28;20068;-74
2023/04/15 01:41:57;;;;;;;2.60;0.95;;;7.30;57.10;;;;;;5009882;28;20095;-74
2023/04/15 01:44:23;;;;;;;2.63;1.02;;;7.30;57.20;;;;;;5017564;28;20041;-74
2023/04/15 01:46:49;;;;;;;1.55;0.88;;;7.30;57.10;;;;;;5023350;28;20175;-76
2023/04/15 01:49:15;;;;;;;0.95;0.85;;;7.30;57.20;;;;;;5024038;28;20515;-75
2023/04/15 01:51:41;;;;;;;1.35;0.90;;;7.20;57.10;;;;;;5020310;28;20112;-75
2023/04/15 01:54:07;;;;;;;1.05;0.60;;;7.30;57.20;;;;;;5007916;28;20116;-76
2023/04/15 01:56:33;;;;;;;3.08;0.85;;;7.30;57.30;;;;;;5015355;28;20033;-76
2023/04/15 01:59:00;;;;;;;1.73;0.70;;;7.30;57.30;;;;;;5013787;28;20379;-75
2023/04/15 02:01:26;;;;;;;2.63;1.08;;;7.30;57.30;;;;;;5021523;28;20064;-75
2023/04/15 02:03:53;;;;;;;2.72;1.10;;;7.20;57.10;;;;;;5025922;28;20061;-75
2023/04/15 02:06:20;;;;;;;3.83;1.02;;;7.30;57.40;;;;;;5022262;28;20033;-75
2023/04/15 02:08:47;;;;;;;1.65;0.70;;;7.20;57.20;;;;;;5015861;28;20110;-74
2023/04/15 02:11:13;;;;;;;2.45;0.90;;;7.30;57.50;;;;;;5008336;28;20033;-75
2023/04/15 02:13:39;;;;;;;1.33;0.90;;;7.30;57.40;;;;;;5018187;28;20045;-75
2023/04/15 02:16:15;;;;;;;0.90;0.80;;;7.20;57.20;;;;;;5024198;28;20038;-75
2023/04/15 02:18:46;;;;;;;2.00;0.88;;;7.30;57.50;;;;;;5008783;28;20549;-75
2023/04/15 02:21:12;;;;;;;3.47;0.90;;;7.20;57.30;;;;;;5008850;28;20033;-76
2023/04/15 02:23:38;;;;;;;1.15;1.02;;;7.20;57.20;;;;;;5021855;28;20040;-75
2023/04/15 02:26:04;;;;;;;1.92;1.00;;;7.20;57.30;;;;;;5021587;28;20120;-74
2023/04/15 02:28:30;;;;;;;0.82;0.73;;;7.20;57.30;;;;;;5010442;28;20033;-75
2023/04/15 02:30:58;;;;;;;1.35;0.93;;;7.10;57.20;;;;;;5024235;28;20704;-75
2023/04/15 02:33:24;;;;;;;1.75;0.80;;;7.10;57.20;;;;;;5027191;28;20025;-75
2023/04/15 02:35:50;;;;;;;3.13;0.77;;;7.10;57.20;;;;;;5024326;28;20115;-76
2023/04/15 02:38:16;;;;;;;1.02;0.80;;;7.10;57.20;;;;;;5024579;28;20164;-76
2023/04/15 02:40:45;;;;;;;1.08;0.80;;;7.10;57.20;;;;;;5020276;28;20500;-75
2023/04/15 02:43:11;;;;;;;1.05;0.75;;;7.00;57.10;;;;;;5001424;28;20038;-75
2023/04/15 02:45:37;;;;;;;1.77;1.00;;;7.00;57.10;;;;;;5024470;28;20603;-75
2023/04/15 02:48:05;;;;;;;1.55;0.82;;;7.00;57.20;;;;;;5025009;28;20045;-75
2023/04/15 02:50:31;;;;;;;1.73;1.00;;;7.00;57.20;;;;;;5016758;28;20030;-75
2023/04/15 02:52:57;;;;;;;1.20;0.90;;;6.90;57.10;;;;;;5000339;28;20419;-75
2023/04/15 02:55:23;;;;;;;2.95;0.95;;;6.90;57.10;;;;;;5022450;28;20608;-75
2023/04/15 02:57:49;;;;;;;1.83;0.98;;;6.90;57.10;;;;;;5016202;28;20033;-75
2023/04/15 03:00:15;;;;;;;1.60;1.00;;;6.90;57.20;;;;;;5024038;28;20468;-75
2023/04/15 03:02:45;;;;;;;1.40;0.93;;;6.90;57.20;;;;;;5015835;28;20596;-75
2023/04/15 03:05:12;;;;;;;1.58;0.90;;;6.90;57.20;;;;;;5021755;28;20040;-76
2023/04/15 03:07:40;;;;;;;2.47;1.05;;;6.90;57.20;;;;;;5018599;28;20038;-75
2023/04/15 03:10:09;;;;;;;2.30;1.05;;;6.90;57.20;;;;;;5025312;28;20492;-76
2023/04/15 03:12:37;;;;;;;1.45;1.00;;;6.90;57.20;;;;;;5005114;28;20041;-75
2023/04/15 03:15:03;;;;;;;1.83;0.90;;;6.80;57.10;;;;;;5024340;28;20052;-75
2023/04/15 03:17:36;;;;;;;;;;;6.80;57.10;;;;;;5005370;28;20505;-75
2023/04/15 03:20:06;;;;;;;1.80;0.85;;;6.80;57.10;;;;;;5019942;28;19916;-75
2023/04/15 03:22:32;;;;;;;0.90;0.90;;;6.80;56.90;;;;;;5020899;28;20021;-75
2023/04/15 03:24:58;;;;;;;1.33;1.15;;;6.70;56.80;;;;;;5004125;28;20041;-75
2023/04/15 03:27:25;;;;;;;2.50;1.05;;;6.70;56.80;;;;;;5023513;28;20413;-75
2023/04/15 03:29:55;;;;;;;1.63;0.80;;;6.70;56.90;;;;;;5016495;28;20037;-75
2023/04/15 03:32:23;;;;;;;1.13;0.90;;;6.70;56.90;;;;;;5009098;28;20060;-75
2023/04/15 03:34:49;;;;;;;1.17;1.00;;;6.60;56.80;;;;;;5023619;28;20485;-75
2023/04/15 03:37:15;;;;;;;1.38;1.20;;;6.60;56.80;;;;;;5015759;28;20101;-75
2023/04/15 03:39:41;;;;;;;1.88;1.10;;;6.60;56.80;;;;;;5022950;28;20159;-75
2023/04/15 03:42:07;;;;;;;1.40;1.17;;;6.50;56.60;;;;;;5025575;28;20032;-75
2023/04/15 03:44:33;;;;;;;1.95;1.00;;;6.50;56.70;;;;;;5025816;28;20037;-75
2023/04/15 03:46:58;;;;;;;1.38;1.20;;;6.50;56.70;;;;;;5022702;28;20066;-75
2023/04/15 03:49:24;;;;;;;0.80;0.75;;;6.50;56.70;;;;;;5023987;28;20123;-75
2023/04/15 03:51:51;;;;;;;0.90;0.82;;;6.50;56.80;;;;;;5014176;28;20044;-75
2023/04/15 03:54:17;;;;;;;1.17;1.00;;;6.40;56.60;;;;;;5020485;28;20073;-74
2023/04/15 03:56:45;;;;;;;1.13;1.02;;;6.40;56.60;;;;;;5022816;28;20127;-74
2023/04/15 03:59:11;;;;;;;1.40;0.95;;;6.30;57.00;;;;;;5019708;28;20061;-74
2023/04/15 04:01:37;;;;;;;1.30;0.90;;;6.30;56.50;;;;;;5018792;28;20116;-74
2023/04/15 04:04:03;;;;;;;1.42;1.02;;;6.30;56.50;;;;;;5025526;28;20041;-74
2023/04/15 04:06:29;;;;;;;2.17;1.40;;;6.30;56.60;;;;;;5024594;28;20045;-75
2023/04/15 04:08:56;;;;;;;1.63;1.17;;;6.30;56.60;;;;;;5022395;28;20034;-75
2023/04/15 04:11:22;;;;;;;1.08;0.65;;;6.30;56.60;;;;;;5020370;28;20497;-75
2023/04/15 04:13:48;;;;;;;1.08;1.08;;;6.20;56.50;;;;;;5023201;28;20145;-75
2023/04/15 04:16:15;;;;;;;2.25;1.30;;;6.20;56.50;;;;;;5007272;28;20079;-74
2023/04/15 04:18:41;;;;;;;1.15;0.98;;;6.20;56.50;;;;;;5017258;28;20520;-74
2023/04/15 04:21:07;;;;;;;1.90;1.20;;;6.20;56.50;;;;;;5013254;28;20042;-76
2023/04/15 04:23:32;;;;;;;3.05;1.58;;;6.20;56.50;;;;;;5017243;28;20026;-75
2023/04/15 04:25:58;;;;;;;2.50;1.15;;;6.20;56.50;;;;;;5021732;28;20085;-75
2023/04/15 04:28:24;;;;;;;1.15;0.85;;;6.20;56.50;;;;;;5024038;28;20117;-75
2023/04/15 04:30:50;;;;;;;2.47;0.88;;;6.20;56.50;;;;;;5024648;28;20053;-75
2023/04/15 04:33:16;;;;;;;1.23;1.05;;;6.20;56.50;;;;;;5021572;28;20045;-75
2023/04/15 04:35:44;;;;;;;2.53;1.00;;;6.20;56.60;;;;;;5025275;28;20489;-74
2023/04/15 04:38:09;;;;;;;1.00;0.93;;;6.20;56.50;;;;;;5023393;28;20044;-74
2023/04/15 04:40:36;;;;;;;0.95;0.80;;;6.20;56.50;;;;;;5026368;28;20029;-74
2023/04/15 04:43:02;;;;;;;1.10;1.00;;;6.20;56.60;;;;;;5012395;28;20030;-74
2023/04/15 04:45:28;;;;;;;1.95;1.13;;;6.20;56.60;;;;;;5017952;28;20083;-75
2023/04/15 04:47:57;;;;;;;1.50;1.02;;;6.20;56.60;;;;;;5008517;28;20052;-75
2023/04/15 04:50:23;;;;;;;3.78;1.30;;;6.10;56.50;;;;;;5018527;28;20049;-75
2023/04/15 04:52:50;;;;;;;1.50;1.10;;;6.10;56.50;;;;;;5024918;28;20147;-75
2023/04/15 04:55:15;;;;;;;1.02;1.00;;;6.10;56.50;;;;;;5003918;28;20037;-76
2023/04/15 04:57:41;;;;;;;2.72;1.60;;;6.10;56.50;;;;;;5002347;28;20147;-76
2023/04/15 05:00:08;;;;;;;1.27;1.00;;;6.00;56.40;;;;;;5012913;28;20355;-76
2023/04/15 05:02:34;;;;;;;1.20;1.08;;;6.00;56.40;;;;;;5001164;28;20116;-75
2023/04/15 05:05:00;;;;;;;1.75;0.90;;;6.00;56.50;;;;;;5018273;28;20038;-75
2023/04/15 05:07:26;;;;;;;0.85;0.85;;;6.00;56.40;;;;;;5044543;28;20053;-78
2023/04/15 05:09:52;;;;;;;1.42;0.95;;;5.90;56.30;;;;;;5028762;28;20033;-76
2023/04/15 05:12:18;;;;;;;1.20;1.10;;;5.90;56.30;;;;;;5043351;28;20032;-75
2023/04/15 05:14:45;;;;;;;3.60;1.63;;;5.90;56.30;;;;;;5041720;28;20033;-78
2023/04/15 05:17:11;;;;;;;1.58;1.15;;;5.90;56.40;;;;;;5046344;28;20041;-76
2023/04/15 05:19:37;;;;;;;1.98;0.93;;;5.90;56.40;;;;;;5033010;28;20173;-75
2023/04/15 05:22:03;;;;;;;1.90;1.10;;;5.90;56.40;;;;;;5029792;28;20494;-75
2023/04/15 05:24:29;;;;;;;2.67;1.10;;;5.80;56.20;;;;;;5029753;28;20136;-76
2023/04/15 05:26:55;;;;;;;1.42;1.33;;;5.80;56.20;;;;;;5038148;28;20033;-76
2023/04/15 05:29:21;;;;;;;2.92;1.30;;;5.80;56.20;;;;;;5019323;28;20041;-75
2023/04/15 05:31:47;;;;;;;2.83;1.40;;;5.70;56.00;;;;;;5024819;28;20390;-73
2023/04/15 05:34:15;;;;;;;1.90;1.20;;;5.70;56.00;;;;;;5020239;28;20378;-75
2023/04/15 05:36:41;;;;;;;1.35;1.13;;;5.70;56.00;;;;;;5004425;28;20095;-77
2023/04/15 05:39:07;;;;;;;2.65;1.20;;;5.70;56.00;;;;;;4996224;28;20489;-77
2023/04/15 05:41:33;;;;;;;1.77;1.33;;;5.70;56.00;;;;;;5003357;28;20037;-77
2023/04/15 05:44:00;;;;;;;1.48;1.10;;;5.70;56.00;;;;;;5010555;28;20038;-76
2023/04/15 05:46:26;;;;;;;1.35;1.25;;;5.70;56.00;;;;;;5011547;28;20320;-77
2023/04/15 05:48:52;;;;;;;1.70;1.40;;;5.70;56.00;;;;;;5009574;28;20045;-76
2023/04/15 05:51:18;;;;;;;2.08;1.60;;;5.70;56.00;;;;;;5013531;28;20144;-76
2023/04/15 05:53:44;;;;;;;1.30;1.10;;;5.70;56.00;;;;;;5014123;28;20092;-76
2023/04/15 05:56:10;;;;;;;1.85;1.50;;;5.70;55.90;;;;;;5015065;28;20501;-75
2023/04/15 05:58:36;;;;;;;2.10;1.63;;;5.70;55.90;;;;;;5014361;28;20611;-74
2023/04/15 06:01:03;;;;;;;1.48;1.38;;;5.80;56.00;;;;;;5013299;28;20068;-75
2023/04/15 06:03:29;;;;;;;2.58;1.30;;;5.80;56.00;;;;;;5018233;28;20034;-77
2023/04/15 06:05:55;;;;;;;2.50;1.55;;;5.90;56.10;;;;;;5029933;28;20034;-76
2023/04/15 06:08:21;;;;;;;1.65;1.42;;;6.00;56.20;;;;;;5013750;28;20044;-76
2023/04/15 06:10:47;;;;;;;1.48;1.38;;;6.00;56.10;;;;;;5015475;28;20101;-75
2023/04/15 06:13:13;;;;;;;5.78;5.18;;;6.10;56.20;;;;;;5013654;28;20465;-75
2023/04/15 06:15:39;;;;;;;5.10;3.78;;;6.20;56.30;;;;;;5011661;28;20060;-75
2023/04/15 06:18:04;;;;;;;8.30;3.58;;;6.50;57.10;;;;;;5015960;28;20477;-74
2023/04/15 06:20:30;;;;;;;7.13;3.65;;;6.70;57.50;;;;;;5019846;28;20095;-74
2023/04/15 06:22:56;;;;;;;4.93;3.30;;;6.90;57.90;;;;;;5015896;28;20029;-79
2023/04/15 06:25:22;;;;;;;6.82;3.20;;;7.30;58.60;;;;;;5019757;28;20116;-74
2023/04/15 06:27:49;;;;;;;3.13;2.80;;;7.60;59.00;;;;;;5013139;28;20168;-77
2023/04/15 06:30:15;;;;;;;5.85;2.10;;;8.10;59.80;;;;;;5020073;28;20455;-75
2023/04/15 06:32:41;;;;;;;5.53;2.25;;;8.70;60.40;;;;;;5019538;28;20245;-76
2023/04/15 06:35:07;;;;;;;3.60;1.52;;;9.30;60.80;;;;;;5018822;28;20079;-76
2023/04/15 06:37:33;;;;;;;3.40;1.55;;;9.80;60.80;;;;;;5009593;28;20072;-76
2023/04/15 06:39:59;;;;;;;2.00;1.35;;;10.30;60.80;;;;;;5008408;28;20131;-75
2023/04/15 06:42:25;;;;;;;2.05;1.80;;;10.70;60.70;;;;;;5015807;28;20040;-76
2023/04/15 06:44:51;;;;;;;2.83;1.17;;;11.10;60.50;;;;;;5020782;28;20045;-76
2023/04/15 06:47:17;;;;;;;2.30;1.65;;;11.20;59.80;;;;;;5011552;28;20026;-77
2023/04/15 06:49:43;;;;;;;1.63;1.10;;;11.20;59.30;;;;;;5007375;28;20053;-77
2023/04/15 06:52:10;;;;;;;5.40;1.02;;;11.10;58.70;;;;;;5019449;28;20342;-77
2023/04/15 06:54:36;;;;;;;1.20;1.00;;;11.00;58.40;;;;;;5012856;28;20476;-76
2023/04/15 06:57:02;;;;;;;1.08;0.98;;;10.80;58.10;;;;;;5012767;28;20486;-76
2023/04/15 06:59:28;;;;;;;2.20;1.02;;;10.60;57.90;;;;;;4997350;28;20082;-76
2023/04/15 07:01:54;;;;;;;1.63;1.02;;;10.50;57.90;;;;;;5009027;28;20120;-75
2023/04/15 07:04:20;;;;;;;3.35;1.73;;;10.30;57.70;;;;;;5011116;28;20073;-76
2023/04/15 07:06:46;;;;;;;2.25;1.20;;;10.20;57.70;;;;;;5016994;28;20080;-77
2023/04/15 07:09:12;;;;;;;4.35;1.10;;;10.10;57.60;;;;;;5016029;28;20500;-76
2023/04/15 07:11:38;;;;;;;2.67;1.13;;;10.00;57.50;;;;;;5013827;28;20555;-76
2023/04/15 07:14:04;;;;;;;2.00;1.27;;;9.90;57.40;;;;;;5001623;28;20309;-75
2023/04/15 07:16:30;;;;;;;2.47;1.15;;;9.90;57.40;;;;;;5013918;28;20208;-76
2023/04/15 07:18:56;;;;;;;1.35;1.20;;;9.90;57.40;;;;;;4986313;28;20037;-77
2023/04/15 07:21:22;;;;;;;2.10;1.10;;;9.90;57.30;;;;;;5008159;28;20506;-76
2023/04/15 07:23:48;;;;;;;1.63;0.88;;;10.00;57.30;;;;;;5012120;28;20036;-77
2023/04/15 07:26:14;;;;;;;1.52;1.13;;;10.00;57.10;;;;;;4993614;28;20038;-77
2023/04/15 07:28:40;;;;;;;2.47;1.77;;;10.10;57.20;;;;;;5017094;28;20055;-77
2023/04/15 07:31:06;;;;;;;1.23;1.05;;;10.20;57.10;;;;;;5014108;28;20116;-77
2023/04/15 07:33:32;;;;;;;1.27;1.17;;;10.30;57.10;;;;;;5016142;28;20040;-77
2023/04/15 07:35:58;;;;;;;1.95;0.85;;;10.30;57.00;;;;;;5020437;28;20033;-77
2023/04/15 07:38:24;;;;;;;4.10;1.20;;;10.40;57.20;;;;;;5013102;28;20033;-76
2023/04/15 07:40:50;;;;;;;1.63;1.10;;;10.60;58.10;;;;;;5019599;28;20029;-76
2023/04/15 07:43:17;;;;;;;3.08;0.93;;;10.90;58.70;;;;;;5019141;28;20529;-76
2023/04/15 07:45:43;;;;;;;1.85;1.20;;;11.10;58.80;;;;;;5002202;28;20044;-75
2023/04/15 07:48:09;;;;;;;1.13;0.80;;;11.40;59.00;;;;;;5017729;28;20468;-75
2023/04/15 07:50:35;;;;;;;1.92;0.90;;;11.60;59.20;;;;;;5015709;28;20045;-77
2023/04/15 07:53:01;;;;;;;4.25;2.40;;;11.70;59.20;;;;;;5011914;28;20113;-74
2023/04/15 07:55:29;;;;;;;2.70;1.55;;;11.90;59.50;;;;;;4991097;28;20033;-77
2023/04/15 07:57:56;;;;;;;2.72;2.03;;;12.10;60.10;;;;;;5010927;28;20025;-75
2023/04/15 08:00:24;;;;;;;4.38;2.03;;;12.40;60.40;;;;;;5017436;28;20048;-74
2023/04/15 08:02:52;;;;;;;4.13;1.60;;;12.70;60.60;;;;;;4997487;28;20528;-74
2023/04/15 08:05:18;;;;;;;5.63;2.50;;;13.00;60.60;;;;;;4993529;28;20100;-75
2023/04/15 08:07:45;;;;;;;6.78;1.55;;;13.20;60.50;;;;;;5013654;28;20829;-76
2023/04/15 08:10:11;;;;;;;4.18;1.67;;;13.20;60.20;;;;;;4997729;28;20115;-75
2023/04/15 08:12:37;;;;;;;7.20;2.80;;;13.30;60.20;;;;;;5013003;28;20021;-75
2023/04/15 08:15:04;;;;;;;7.88;2.55;;;13.30;60.10;;;;;;5017647;28;20366;-75
2023/04/15 08:17:29;;;;;;;10.48;3.92;;;13.30;60.10;;;;;;5017963;28;20030;-75
2023/04/15 08:19:56;;;;;;;11.90;4.53;;;13.40;60.30;;;;;;5013170;28;20041;-78
2023/04/15 08:22:22;;;;;;;21.05;6.93;;;13.50;60.20;;;;;;4998876;28;20037;-77
2023/04/15 08:24:47;;;;;;;15.50;6.07;;;13.50;60.00;;;;;;4997137;28;20041;-76
2023/04/15 08:27:13;;;;;;;31.70;8.32;;;13.50;60.50;;;;;;5017457;28;20038;-77
2023/04/15 08:29:39;;;;;;;65.03;20.38;;;13.50;60.00;;;;;;5017635;28;20576;-74
2023/04/15 08:32:06;;;;;;;55.83;20.83;;;13.40;59.90;;;;;;5015760;28;20039;-74
2023/04/15 08:34:38;;;;;;;69.65;21.90;;;13.40;60.40;;;;;;5003196;28;20038;-74
2023/04/15 08:37:04;;;;;;;59.38;18.48;;;13.50;60.90;;;;;;5021342;28;20044;-75
2023/04/15 08:39:31;;;;;;;66.45;19.75;;;13.70;61.20;;;;;;4993205;28;20061;-76
2023/04/15 08:42:01;;;;;;;61.17;18.80;;;13.90;61.40;;;;;;5021095;28;20083;-74
2023/04/15 08:44:33;;;;;;;48.92;17.45;;;14.10;61.50;;;;;;5017163;28;20083;-76
2023/04/15 08:47:05;;;;;;;55.22;19.00;;;14.30;61.50;;;;;;4970268;28;20033;-74
2023/04/15 08:49:31;;;;;;;40.33;15.52;;;14.50;61.40;;;;;;5033722;28;20547;-74
2023/04/15 08:51:59;;;;;;;44.65;16.40;;;14.70;61.30;;;;;;5016884;28;20103;-75
2023/04/15 08:54:27;;;;;;;46.35;16.10;;;14.90;61.30;;;;;;5005849;28;20143;-76
2023/04/15 08:56:53;;;;;;;36.92;13.63;;;15.10;61.20;;;;;;5016982;28;20164;-75
2023/04/15 08:59:21;;;;;;;32.20;13.48;;;15.30;61.10;;;;;;5014270;28;20126;-75
2023/04/15 09:01:49;;;;;;;35.58;12.35;;;15.40;61.00;;;;;;5021591;28;20029;-75
2023/04/15 09:04:16;;;;;;;29.98;11.32;;;15.60;61.00;;;;;;5020180;28;20052;-75
2023/04/15 09:06:42;;;;;;;27.45;10.40;;;15.70;60.80;;;;;;5009091;28;20443;-75
2023/04/15 09:09:08;;;;;;;30.23;11.52;;;15.80;60.70;;;;;;5006971;28;20631;-76
2023/04/15 09:11:35;;;;;;;28.02;10.27;;;15.90;60.60;;;;;;5002112;28;20076;-76
2023/04/15 09:14:01;;;;;;;29.65;10.38;;;16.00;60.50;;;;;;5019609;28;20578;-76
2023/04/15 09:16:27;;;;;;;19.40;8.77;;;16.10;60.40;;;;;;5020263;28;20052;-75
2023/04/15 09:18:53;;;;;;;27.02;10.32;;;16.20;60.30;;;;;;5004145;28;20033;-76
2023/04/15 09:21:20;;;;;;;20.90;9.25;;;16.30;60.20;;;;;;5015465;28;20536;-77
2023/04/15 09:23:57;;;;;;;18.42;7.85;;;16.40;60.70;;;;;;5019463;28;20148;-76
2023/04/15 09:26:43;;;;;;;23.08;8.38;;;16.50;60.10;;;;;;5018948;28;20036;-76
2023/04/15 09:29:13;;;;;;;17.23;7.07;;;16.60;59.80;;;;;;5020661;28;20072;-74
2023/04/15 09:31:40;;;;;;;22.77;8.18;;;16.70;59.90;;;;;;5010491;28;20048;-74
2023/04/15 09:34:06;;;;;;;15.07;7.68;;;16.80;59.80;;;;;;5013342;28;20396;-75
2023/04/15 09:36:52;;;;;;;15.73;6.53;;;16.80;59.60;;;;;;5017159;28;20041;-75
2023/04/15 09:39:18;;;;;;;14.27;6.47;;;16.90;59.50;;;;;;5007258;28;20022;-77
2023/04/15 09:41:44;;;;;;;13.02;5.22;;;17.00;59.50;;;;;;5017278;28;20098;-75
2023/04/15 09:44:26;;;;;;;10.45;3.83;;;17.00;59.20;;;;;;5013924;28;20277;-75
2023/04/15 09:46:55;;;;;;;9.50;4.03;;;16.90;58.40;;;;;;5021403;28;20392;-76
2023/04/15 09:49:21;;;;;;;8.40;3.80;;;16.90;58.50;;;;;;5012449;28;20459;-75
2023/04/15 09:51:48;;;;;;;7.28;3.13;;;16.80;58.20;;;;;;5014444;28;20044;-75
2023/04/15 09:54:19;;;;;;;7.40;2.75;;;16.70;58.10;;;;;;5020151;28;20052;-78
2023/04/15 09:56:45;;;;;;;6.47;3.40;;;16.50;57.70;;;;;;5016846;28;20033;-75
2023/04/15 09:59:11;;;;;;;8.13;3.22;;;16.40;57.50;;;;;;5013599;28;20033;-77
2023/04/15 10:01:41;;;;;;;9.60;2.92;;;16.30;57.30;;;;;;5008355;28;20049;-77
2023/04/15 10:04:08;;;;;;;6.43;2.80;;;16.30;57.20;;;;;;5018373;28;20034;-75
2023/04/15 10:06:35;;;;;;;5.38;2.40;;;16.30;57.10;;;;;;5026709;28;20387;-77
2023/04/15 10:09:01;;;;;;;5.85;2.35;;;16.30;56.70;;;;;;5011520;28;20240;-76
2023/04/15 10:11:28;;;;;;;4.28;2.42;;;16.40;56.60;;;;;;5014748;28;20046;-78
2023/04/15 10:13:55;;;;;;;3.75;1.88;;;16.40;56.30;;;;;;5015166;28;20386;-76
2023/04/15 10:16:26;;;;;;;3.97;2.65;;;16.40;56.10;;;;;;5014495;28;20109;-75
2023/04/15 10:18:56;;;;;;;6.07;2.00;;;16.50;56.00;;;;;;5012716;28;20439;-74
2023/04/15 10:21:22;;;;;;;3.65;2.05;;;16.50;55.80;;;;;;5005735;28;20502;-74
2023/04/15 10:23:49;;;;;;;5.38;2.30;;;16.60;55.70;;;;;;5007004;28;20033;-74
2023/04/15 10:26:18;;;;;;;6.53;2.38;;;16.70;55.50;;;;;;5020174;28;20477;-73
2023/04/15 10:28:46;;;;;;;9.57;3.40;;;16.70;55.20;;;;;;5015210;28;20517;-75
2023/04/15 10:31:13;;;;;;;9.18;3.72;;;16.80;55.60;;;;;;5017219;28;20118;-76
2023/04/15 10:33:42;;;;;;;10.07;4.15;;;16.90;56.10;;;;;;5011094;28;20068;-77
2023/04/15 10:36:08;;;;;;;8.00;3.80;;;17.00;56.50;;;;;;5013313;28;20076;-77
2023/04/15 10:38:42;;;;;;;9.25;4.60;;;17.10;56.60;;;;;;5009444;28;20033;-77
2023/04/15 10:41:15;;;;;;;9.38;3.85;;;17.30;56.80;;;;;;5014933;28;20046;-79
2023/04/15 10:43:48;;;;;;;7.22;3.58;;;17.40;56.70;;;;;;5018695;28;20405;-76
2023/04/15 10:46:36;;;;;;;9.05;3.28;;;17.60;56.80;;;;;;5016566;28;20365;-76
2023/04/15 10:49:23;;;;;;;7.57;3.50;;;17.70;56.80;;;;;;5013687;28;20060;-78
2023/04/15 10:51:56;;;;;;;5.00;2.95;;;17.80;56.80;;;;;;5008266;28;20524;-86
2023/04/15 10:54:25;;;;;;;;;;;17.90;56.90;;;;;;5015422;28;20107;-84
2023/04/15 10:57:03;;;;;;;7.28;2.20;;;18.00;57.00;;;;;;5012700;28;19913;-83
2023/04/15 10:59:29;;;;;;;7.65;3.05;;;18.00;56.80;;;;;;4995486;28;20041;-82
2023/04/15 11:02:00;;;;;;;5.35;2.97;;;18.10;56.90;;;;;;5000560;28;20037;-80
2023/04/15 11:04:58;;;;;;;5.18;2.60;;;18.20;56.90;;;;;;5009064;28;20435;-85
2023/04/15 11:07:40;;;;;;;3.20;2.03;;;18.40;56.70;;;;;;5019221;28;20033;-81
2023/04/15 11:10:29;;;;;;;7.03;2.40;;;18.40;56.30;;;;;;5038513;28;20026;-83
2023/04/15 11:13:00;;;;;;;6.60;2.40;;;18.40;56.50;;;;;;5010610;28;20026;-81
2023/04/15 11:15:33;;;;;;;6.78;2.22;;;18.50;56.70;;;;;;5040338;28;20079;-82
2023/04/15 11:18:15;;;;;;;6.97;2.97;;;18.70;57.10;;;;;;5037222;28;20022;-81
2023/04/15 11:20:46;;;;;;;4.45;2.20;;;18.80;57.00;;;;;;5044278;28;20025;-83
2023/04/15 11:23:14;;;;;;;8.25;2.22;;;18.90;56.70;;;;;;5042775;28;20040;-83
2023/04/15 11:25:41;;;;;;;2.38;1.60;;;18.90;56.30;;;;;;5043415;28;20046;-82
2023/04/15 11:28:07;;;;;;;6.28;2.28;;;18.80;55.90;;;;;;5041505;28;20083;-85
2023/04/15 11:30:36;;;;;;;3.55;1.45;;;18.80;55.70;;;;;;5021339;28;20118;-83
2023/04/15 11:33:04;;;;;;;4.32;1.58;;;18.80;55.40;;;;;;5001460;28;20124;-82
2023/04/15 11:35:30;;;;;;;3.40;1.48;;;18.80;54.90;;;;;;5024686;28;20042;-90
2023/04/15 11:37:57;;;;;;;7.07;2.10;;;18.90;54.60;;;;;;4997491;28;20061;-95
2023/04/15 11:40:28;;;;;;;3.08;1.85;;;18.80;54.00;;;;;;5034096;28;20037;-96
2023/04/15 11:43:08;;;;;;;3.60;1.88;;;18.80;53.70;;;;;;5020129;28;20030;-96
2023/04/15 11:45:36;;;;;;;4.03;1.77;;;18.70;53.20;;;;;;5013711;28;20018;-86
2023/04/15 11:48:07;;;;;;;4.10;1.35;;;18.70;53.20;;;;;;5000925;28;20085;-80
2023/04/15 11:50:34;;;;;;;4.22;1.60;;;18.70;52.90;;;;;;5013604;28;20037;-82
2023/04/15 11:53:03;;;;;;;2.78;1.83;;;18.80;52.80;;;;;;5018355;28;20328;-81
2023/04/15 11:55:30;;;;;;;2.88;1.40;;;18.80;52.50;;;;;;5010090;28;20499;-81
2023/04/15 11:58:25;;;;;;;3.58;1.63;;;18.70;52.20;;;;;;5012682;28;20110;-82
2023/04/15 12:00:53;;;;;;;2.67;1.67;;;18.70;51.70;;;;;;5005449;28;20543;-81
2023/04/15 12:03:26;;;;;;;2.80;1.45;;;18.60;52.50;;;;;;5013552;28;20125;-85
2023/04/15 12:06:23;;;;;;;9.95;1.92;;;18.70;51.90;;;;;;5013358;28;20512;-86
2023/04/15 12:09:05;;;;;;;1.73;1.35;;;18.70;51.20;;;;;;5011272;28;21480;-82
2023/04/15 12:11:46;;;;;;;1.92;0.90;;;18.80;51.50;;;;;;5015114;28;20589;-83
2023/04/15 12:14:15;;;;;;;1.65;1.23;;;18.90;51.30;;;;;;5009378;28;20353;-82
2023/04/15 12:16:43;;;;;;;2.08;1.15;;;19.00;51.30;;;;;;5016963;28;20136;-82
2023/04/15 12:19:22;;;;;;;1.30;0.93;;;19.10;51.10;;;;;;5009387;28;20038;-80
2023/04/15 12:21:48;;;;;;;2.35;1.70;;;19.20;50.80;;;;;;5017895;28;20544;-80
2023/04/15 12:24:14;;;;;;;4.57;2.67;;;19.30;50.90;;;;;;5017675;28;20654;-77
2023/04/15 12:26:47;;;;;;;3.22;2.20;;;19.30;50.90;;;;;;5015070;28;20044;-76
2023/04/15 12:29:15;;;;;;;4.07;3.00;;;19.30;51.00;;;;;;5011534;28;20123;-79
2023/04/15 12:31:51;;;;;;;3.45;1.67;;;19.20;51.10;;;;;;5018309;28;20029;-87
2023/04/15 12:34:25;;;;;;;1.98;1.23;;;19.20;50.90;;;;;;5012409;28;20094;-86
2023/04/15 12:36:52;;;;;;;2.97;1.05;;;19.10;50.60;;;;;;5012537;28;20033;-79
2023/04/15 12:39:24;;;;;;;1.33;1.00;;;19.00;50.00;;;;;;5014639;28;20034;-85
2023/04/15 12:41:51;;;;;;;2.25;1.27;;;18.90;49.20;;;;;;5017906;28;20039;-81
2023/04/15 12:44:17;;;;;;;4.70;1.90;;;18.80;48.80;;;;;;5008452;28;20449;-86
2023/04/15 12:46:46;;;;;;;5.75;2.13;;;18.80;48.40;;;;;;5019138;28;20040;-86
2023/04/15 12:49:13;;;;;;;3.05;1.60;;;18.70;48.00;;;;;;5017435;28;20048;-85
2023/04/15 12:51:39;;;;;;;2.90;1.25;;;18.70;47.80;;;;;;5015019;28;20069;-89
2023/04/15 12:54:05;;;;;;;2.15;1.20;;;18.70;47.50;;;;;;4993357;28;20548;-90